Time;durP1;ratioP1;P1;durP2;ratioP2;P2;SDS_P1;SDS_P2;PMS_P1;PMS_P2;Temp;Humidity;BMP_temperature;BMP_pressure;BME280_temperature;BME280_humidity;BME280_pressure;Samples;Min_cycle;Max_cycle;Signal;HPM_P1;HPM_P2
2022/03/03 00:01:47;;;;;;;21.05;7.40;;;;;;;2.32;33.47;99060.31;4964124;28;20114;-75
2022/03/03 00:04:13;;;;;;;22.90;7.35;;;;;;;2.45;33.17;99061.91;4956564;28;20050;-77
2022/03/03 00:06:39;;;;;;;18.83;6.75;;;;;;;2.50;33.01;99056.63;4975366;28;20050;-76
2022/03/03 00:09:06;;;;;;;16.07;6.53;;;;;;;2.56;32.85;99055.66;4974184;28;20137;-77
2022/03/03 00:11:33;;;;;;;26.63;7.53;;;;;;;2.60;32.89;99056.00;4971248;28;20053;-77
2022/03/03 00:14:00;;;;;;;16.53;6.60;;;;;;;2.43;33.15;99050.53;4974606;28;20813;-76
2022/03/03 00:16:26;;;;;;;21.33;7.45;;;;;;;2.32;33.19;99044.91;4957298;28;20360;-76
2022/03/03 00:18:52;;;;;;;18.10;6.80;;;;;;;2.35;33.32;99043.63;4973960;28;20133;-77
2022/03/03 00:21:18;;;;;;;19.13;6.60;;;;;;;2.42;33.08;99036.22;4952780;28;20047;-76
2022/03/03 00:23:45;;;;;;;20.35;7.85;;;;;;;2.37;33.11;99031.53;4968418;28;20054;-77
2022/03/03 00:26:12;;;;;;;23.20;6.95;;;;;;;2.42;33.07;99033.53;4940920;28;20464;-77
2022/03/03 00:28:38;;;;;;;16.30;7.13;;;;;;;2.34;33.11;99028.50;4950306;28;20050;-76
2022/03/03 00:31:05;;;;;;;17.83;7.40;;;;;;;2.23;33.12;99022.88;4968194;28;20042;-77
2022/03/03 00:33:31;;;;;;;21.35;7.20;;;;;;;1.94;33.58;99016.63;4965326;28;20487;-76
2022/03/03 00:35:57;;;;;;;20.15;7.47;;;;;;;1.83;34.00;99023.69;4972153;28;20125;-77
2022/03/03 00:38:24;;;;;;;24.30;8.10;;;;;;;1.64;34.41;99023.81;4971905;28;20146;-77
2022/03/03 00:40:51;;;;;;;21.73;8.38;;;;;;;1.67;34.41;99020.66;4954419;28;20050;-77
2022/03/03 00:43:17;;;;;;;22.73;8.68;;;;;;;1.64;34.76;99013.03;4974192;28;20094;-76
2022/03/03 00:45:43;;;;;;;23.35;8.52;;;;;;;1.51;34.94;99015.97;4975645;28;20308;-77
2022/03/03 00:48:10;;;;;;;29.02;8.60;;;;;;;1.49;35.10;99010.81;4976343;28;20105;-77
2022/03/03 00:50:36;;;;;;;27.33;8.75;;;;;;;1.36;35.28;98994.88;4972809;28;20058;-78
2022/03/03 00:53:03;;;;;;;29.95;9.43;;;;;;;1.34;35.62;99007.75;4970651;28;20103;-78
2022/03/03 00:55:29;;;;;;;25.13;7.95;;;;;;;1.32;35.80;99004.47;4979461;28;20154;-78
2022/03/03 00:57:56;;;;;;;28.60;9.05;;;;;;;1.27;35.87;98992.53;4938040;28;20047;-79
2022/03/03 01:00:22;;;;;;;23.00;8.95;;;;;;;1.23;35.81;98993.22;4973939;28;20058;-79
2022/03/03 01:02:50;;;;;;;22.70;8.88;;;;;;;1.18;36.21;98991.22;4952289;28;20074;-80
2022/03/03 01:05:16;;;;;;;22.77;8.18;;;;;;;1.16;36.34;98981.72;4963343;28;20454;-80
2022/03/03 01:07:43;;;;;;;28.58;8.02;;;;;;;1.14;36.24;98979.28;4953685;28;20061;-79
2022/03/03 01:10:11;;;;;;;25.38;8.18;;;;;;;1.20;36.06;98985.63;4978907;28;20046;-79
2022/03/03 01:12:39;;;;;;;25.30;7.93;;;;;;;1.52;35.47;98990.66;4957144;28;20048;-78
2022/03/03 01:15:07;;;;;;;20.75;7.47;;;;;;;1.18;36.10;98977.75;4944891;28;20043;-78
2022/03/03 01:17:34;;;;;;;21.45;8.55;;;;;;;1.05;36.21;98984.19;4969595;28;20102;-78
2022/03/03 01:20:00;;;;;;;21.45;8.40;;;;;;;1.01;36.39;98983.00;4978504;28;20057;-77
2022/03/03 01:22:26;;;;;;;26.65;8.30;;;;;;;1.01;36.57;98985.69;4952785;28;20062;-78
2022/03/03 01:24:53;;;;;;;22.33;8.18;;;;;;;0.93;36.69;98976.09;4955435;28;20054;-78
2022/03/03 01:27:19;;;;;;;30.45;8.18;;;;;;;0.93;36.52;98980.66;4975422;28;20084;-78
2022/03/03 01:29:45;;;;;;;21.63;7.97;;;;;;;0.92;36.80;98974.44;4966696;28;20090;-77
2022/03/03 01:32:12;;;;;;;18.95;7.88;;;;;;;0.76;36.85;98969.72;4951766;28;20586;-78
2022/03/03 01:34:39;;;;;;;27.20;8.80;;;;;;;0.78;36.94;98962.25;4958402;28;20046;-77
2022/03/03 01:37:05;;;;;;;24.92;8.57;;;;;;;0.73;36.92;98949.50;4970912;28;20051;-78
2022/03/03 01:39:32;;;;;;;29.40;9.60;;;;;;;0.69;37.36;98954.50;4979442;28;20113;-78
2022/03/03 01:41:59;;;;;;;24.73;7.85;;;;;;;0.62;37.33;98950.28;4973235;28;20047;-78
2022/03/03 01:44:25;;;;;;;21.95;8.50;;;;;;;0.71;37.35;98954.31;4949202;28;20050;-77
2022/03/03 01:46:53;;;;;;;24.50;7.60;;;;;;;0.70;37.51;98950.78;4969340;28;20054;-78
2022/03/03 01:49:21;;;;;;;20.85;8.60;;;;;;;0.61;37.74;98945.97;4971385;28;20050;-78
2022/03/03 01:51:47;;;;;;;21.65;9.23;;;;;;;0.52;37.83;98937.41;4940409;28;20047;-77
2022/03/03 01:54:15;;;;;;;26.13;8.90;;;;;;;0.54;37.85;98929.91;4967962;28;20042;-78
2022/03/03 01:56:42;;;;;;;28.17;9.40;;;;;;;0.61;37.84;98925.25;4952787;28;20050;-78
2022/03/03 01:59:09;;;;;;;28.97;8.80;;;;;;;0.54;37.90;98917.25;4938312;28;20067;-79
2022/03/03 02:01:39;;;;;;;30.08;8.77;;;;;;;0.53;38.05;98918.31;4959624;28;20314;-78
2022/03/03 02:04:07;;;;;;;27.60;8.65;;;;;;;0.49;38.06;98916.34;4969607;28;20483;-79
2022/03/03 02:06:35;;;;;;;29.13;9.43;;;;;;;0.51;38.10;98923.13;4947171;28;20413;-78
2022/03/03 02:09:02;;;;;;;20.77;8.25;;;;;;;0.59;37.77;98921.97;4932307;29;20047;-78
2022/03/03 02:11:31;;;;;;;23.42;8.73;;;;;;;0.65;37.66;98912.16;4966315;28;20057;-78
2022/03/03 02:13:57;;;;;;;22.13;7.93;;;;;;;0.63;37.75;98919.63;4923302;28;20099;-78
2022/03/03 02:16:24;;;;;;;20.80;8.25;;;;;;;0.47;38.08;98908.50;4971252;28;20106;-78
2022/03/03 02:18:50;;;;;;;20.13;8.23;;;;;;;0.54;38.17;98913.78;4971703;28;20459;-79
2022/03/03 02:21:17;;;;;;;22.00;7.90;;;;;;;0.69;37.71;98914.16;4970402;28;20061;-79
2022/03/03 02:23:43;;;;;;;24.37;8.37;;;;;;;0.79;37.61;98913.56;4967544;28;20101;-80
2022/03/03 02:26:15;;;;;;;28.50;8.63;;;;;;;0.85;37.54;98906.44;4971478;28;20689;-80
2022/03/03 02:28:43;;;;;;;27.52;9.35;;;;;;;0.72;37.87;98907.50;4969960;28;20582;-79
2022/03/03 02:31:09;;;;;;;23.63;8.15;;;;;;;0.38;38.54;98905.31;4973854;28;20066;-77
2022/03/03 02:33:35;;;;;;;23.30;8.88;;;;;;;0.22;38.80;98890.63;4937968;28;20483;-78
2022/03/03 02:36:15;;;;;;;33.63;8.90;;;;;;;0.16;38.85;98898.78;4981374;28;20414;-78
2022/03/03 02:38:42;;;;;;;24.52;8.70;;;;;;;0.03;39.11;98897.94;4968059;28;20062;-78
2022/03/03 02:41:08;;;;;;;21.48;8.82;;;;;;;-0.06;39.07;98893.94;4974152;28;20050;-78
2022/03/03 02:43:34;;;;;;;24.00;8.05;;;;;;;0.04;38.96;98896.06;4962525;28;20141;-77
2022/03/03 02:46:01;;;;;;;31.67;9.10;;;;;;;-0.06;39.17;98900.13;4958252;28;20537;-78
2022/03/03 02:48:27;;;;;;;19.50;7.37;;;;;;;-0.03;39.38;98905.06;4948045;28;20046;-79
2022/03/03 02:50:53;;;;;;;20.27;7.67;;;;;;;0.18;38.80;98896.72;4955811;28;20054;-79
2022/03/03 02:53:20;;;;;;;20.30;7.80;;;;;;;0.21;38.73;98901.63;4980785;28;20050;-81
2022/03/03 02:55:47;;;;;;;25.47;8.10;;;;;;;0.16;39.04;98894.25;4955484;28;20054;-77
2022/03/03 02:58:13;;;;;;;24.48;8.60;;;;;;;0.09;39.11;98890.84;4979274;28;20534;-78
2022/03/03 03:00:42;;;;;;;22.83;8.30;;;;;;;-0.07;39.45;98893.13;4941758;28;20625;-80
2022/03/03 03:03:09;;;;;;;23.23;8.90;;;;;;;-0.19;39.48;98884.19;4972974;28;20084;-81
2022/03/03 03:05:36;;;;;;;28.33;8.60;;;;;;;-0.28;39.72;98883.69;4956863;28;20051;-79
2022/03/03 03:08:03;;;;;;;25.52;8.48;;;;;;;-0.34;40.02;98876.50;4962698;28;20042;-78
2022/03/03 03:10:30;;;;;;;21.45;8.02;;;;;;;-0.37;40.28;98871.59;4972044;28;20148;-78
2022/03/03 03:12:57;;;;;;;30.00;8.17;;;;;;;-0.38;40.18;98875.31;4971034;28;20137;-79
2022/03/03 03:15:24;;;;;;;24.98;8.30;;;;;;;-0.21;39.68;98868.28;4973534;28;20062;-78
2022/03/03 03:17:51;;;;;;;24.70;8.30;;;;;;;-0.11;39.37;98864.25;4933302;28;20047;-80
2022/03/03 03:20:17;;;;;;;25.73;7.40;;;;;;;-0.34;39.90;98857.69;4956153;28;20047;-80
2022/03/03 03:22:43;;;;;;;28.30;9.50;;;;;;;-0.18;39.74;98856.25;4949682;28;20051;-80
2022/03/03 03:25:12;;;;;;;20.57;7.93;;;;;;;-0.13;39.30;98858.28;4964029;28;20047;-80
2022/03/03 03:27:42;;;;;;;26.83;7.90;;;;;;;-0.17;39.55;98849.84;4970765;28;20050;-80
2022/03/03 03:30:11;;;;;;;18.70;7.10;;;;;;;-0.15;39.59;98850.44;4965843;28;20046;-80
2022/03/03 03:32:38;;;;;;;25.88;9.00;;;;;;;-0.13;39.54;98847.53;4970118;28;20579;-81
2022/03/03 03:35:05;;;;;;;24.40;9.03;;;;;;;-0.23;39.98;98851.56;4977780;28;20046;-80
2022/03/03 03:37:32;;;;;;;22.15;8.68;;;;;;;-0.24;39.88;98847.25;4969945;28;20047;-80
2022/03/03 03:39:58;;;;;;;26.33;9.27;;;;;;;-0.29;40.01;98847.09;4973678;28;20059;-80
2022/03/03 03:42:24;;;;;;;28.47;9.57;;;;;;;-0.32;40.16;98852.91;4940826;28;20049;-79
2022/03/03 03:44:51;;;;;;;29.63;9.87;;;;;;;-0.48;40.48;98849.00;4958456;28;20113;-79
2022/03/03 03:47:18;;;;;;;26.23;8.00;;;;;;;-0.73;40.82;98845.34;4978003;28;20056;-80
2022/03/03 03:49:44;;;;;;;23.80;8.60;;;;;;;-0.75;40.99;98843.94;4976987;28;20051;-80
2022/03/03 03:52:10;;;;;;;20.87;8.27;;;;;;;-0.75;40.98;98836.72;4973077;28;20070;-79
2022/03/03 03:54:36;;;;;;;26.17;9.10;;;;;;;-0.74;40.95;98822.25;4925930;28;20077;-78
2022/03/03 03:57:04;;;;;;;27.50;8.07;;;;;;;-0.70;40.94;98828.00;4971249;28;20053;-79
2022/03/03 03:59:30;;;;;;;24.83;8.75;;;;;;;-0.71;40.57;98820.94;4972636;28;20129;-78
2022/03/03 04:01:57;;;;;;;21.37;7.50;;;;;;;-0.74;40.92;98832.13;4968938;28;20082;-79
2022/03/03 04:04:23;;;;;;;27.48;8.23;;;;;;;-0.87;40.90;98823.19;4971854;28;20055;-77
2022/03/03 04:06:50;;;;;;;25.57;9.00;;;;;;;-0.84;41.29;98827.31;4954442;28;20463;-78
2022/03/03 04:09:16;;;;;;;24.50;7.67;;;;;;;-0.79;41.02;98814.00;4952970;28;20141;-79
2022/03/03 04:11:42;;;;;;;23.53;7.50;;;;;;;-0.79;41.09;98826.63;4974467;28;20093;-78
2022/03/03 04:14:08;;;;;;;24.33;7.30;;;;;;;-0.94;41.47;98825.16;4977751;28;20046;-79
2022/03/03 04:16:35;;;;;;;26.97;7.43;;;;;;;-0.96;41.39;98835.28;4984232;28;20477;-79
2022/03/03 04:19:01;;;;;;;21.23;7.77;;;;;;;-1.03;41.66;98835.34;4961158;28;20085;-78
2022/03/03 04:21:31;;;;;;;19.23;7.40;;;;;;;-1.03;41.85;98821.94;4953469;28;20051;-79
2022/03/03 04:23:57;;;;;;;19.73;7.60;;;;;;;-0.97;41.53;98822.91;4978785;28;20054;-80
2022/03/03 04:26:23;;;;;;;24.07;8.10;;;;;;;-0.81;41.13;98826.03;4954008;28;20113;-79
2022/03/03 04:28:50;;;;;;;23.63;8.10;;;;;;;-0.63;40.88;98822.50;4954017;28;20050;-79
2022/03/03 04:31:16;;;;;;;22.37;6.70;;;;;;;-0.56;40.62;98823.25;4938574;28;20057;-79
2022/03/03 04:33:42;;;;;;;20.17;7.03;;;;;;;-0.52;40.51;98820.94;4954028;28;20051;-78
2022/03/03 04:36:09;;;;;;;28.47;7.17;;;;;;;-0.60;40.45;98812.16;4970779;28;20051;-78
2022/03/03 04:38:35;;;;;;;22.17;7.30;;;;;;;-0.59;40.70;98821.03;4962523;28;20052;-79
2022/03/03 04:41:01;;;;;;;20.17;7.07;;;;;;;-0.86;41.00;98798.03;4971314;28;20049;-79
2022/03/03 04:43:28;;;;;;;17.00;7.13;;;;;;;-0.78;41.12;98817.53;4954741;28;20046;-79
2022/03/03 04:45:54;;;;;;;22.97;7.07;;;;;;;-0.88;41.48;98821.56;4971595;28;20486;-79
2022/03/03 04:48:21;;;;;;;28.57;8.33;;;;;;;-0.88;41.46;98826.91;4953559;28;20590;-78
2022/03/03 04:50:48;;;;;;;18.50;7.20;;;;;;;-0.90;41.49;98826.31;4982329;28;20097;-79
2022/03/03 04:53:14;;;;;;;19.80;7.53;;;;;;;-0.83;41.41;98823.56;4956011;28;20039;-75
2022/03/03 04:55:41;;;;;;;22.63;7.77;;;;;;;-0.68;41.03;98817.84;4973523;28;20050;-75
2022/03/03 04:58:09;;;;;;;20.80;7.60;;;;;;;-0.77;41.16;98809.28;4971455;28;20043;-75
2022/03/03 05:00:35;;;;;;;20.33;7.25;;;;;;;-0.73;41.19;98829.25;4972129;28;20137;-74
2022/03/03 05:03:01;;;;;;;24.60;7.80;;;;;;;-0.55;40.71;98829.44;4938764;28;20073;-74
2022/03/03 05:05:27;;;;;;;21.13;7.23;;;;;;;-0.40;40.69;98821.81;4971725;28;20071;-74
2022/03/03 05:07:53;;;;;;;21.40;7.93;;;;;;;-0.34;40.69;98820.09;4953864;28;20054;-75
2022/03/03 05:10:19;;;;;;;27.70;7.77;;;;;;;-0.15;40.15;98812.81;4971247;28;20046;-73
2022/03/03 05:12:47;;;;;;;34.20;7.77;;;;;;;-0.03;39.75;98816.34;4953187;28;20138;-75
2022/03/03 05:15:13;;;;;;;24.55;8.23;;;;;;;-0.02;40.05;98806.41;4970882;28;20042;-73
2022/03/03 05:17:39;;;;;;;25.47;8.23;;;;;;;0.22;39.45;98801.09;4953529;28;20101;-76
2022/03/03 05:22:50;;;;;;;36.10;8.27;;;;;;;0.52;39.27;98797.50;4970427;28;20050;-74
2022/03/03 05:25:16;;;;;;;29.07;8.07;;;;;;;0.61;39.19;98801.47;4969436;28;20209;-74
2022/03/03 05:27:43;;;;;;;27.97;7.37;;;;;;;0.38;39.48;98805.81;4974565;28;20054;-75
2022/03/03 05:30:10;;;;;;;32.43;7.83;;;;;;;0.44;39.68;98801.38;4970107;28;20054;-74
2022/03/03 05:32:37;;;;;;;22.30;6.73;;;;;;;0.52;39.65;98800.19;4953712;28;20047;-72
2022/03/03 05:35:04;;;;;;;22.60;7.18;;;;;;;0.52;39.62;98794.81;4969181;28;20070;-72
2022/03/03 05:37:32;;;;;;;20.35;7.20;;;;;;;0.55;39.73;98800.56;4969848;28;20069;-72
2022/03/03 05:39:58;;;;;;;24.98;9.68;;;;;;;0.75;39.09;98795.84;4952221;28;20134;-72
2022/03/03 05:42:25;;;;;;;22.88;10.15;;;;;;;0.95;39.04;98795.50;4974004;28;20433;-79
2022/03/03 05:44:52;;;;;;;29.05;10.20;;;;;;;1.08;38.78;98797.09;4953006;28;20051;-78
2022/03/03 05:47:19;;;;;;;29.92;11.65;;;;;;;1.13;38.84;98799.94;4952685;28;20054;-79
2022/03/03 05:49:47;;;;;;;;;;;;;;;1.23;38.52;98802.81;4970521;28;20055;-74
2022/03/03 05:52:14;;;;;;;51.03;17.45;;;;;;;1.32;38.38;98797.88;4970251;28;19930;-72
2022/03/03 05:54:40;;;;;;;41.72;15.70;;;;;;;1.41;38.47;98801.84;4978316;28;20499;-73
2022/03/03 05:57:12;;;;;;;31.70;12.03;;;;;;;1.49;38.22;98791.75;4947340;28;20087;-70
2022/03/03 05:59:41;;;;;;;32.17;12.95;;;;;;;1.52;38.15;98786.69;4969387;28;20047;-71
2022/03/03 06:02:09;;;;;;;30.33;12.68;;;;;;;1.66;38.28;98791.78;4966754;28;20058;-73
2022/03/03 06:04:39;;;;;;;27.92;9.38;;;;;;;1.90;37.80;98791.69;4969326;28;20563;-73
2022/03/03 06:07:08;;;;;;;24.88;8.63;;;;;;;1.95;37.71;98791.78;4968547;28;20046;-74
2022/03/03 06:09:35;;;;;;;27.90;7.95;;;;;;;2.04;37.15;98790.34;4969613;28;20050;-74
2022/03/03 06:12:06;;;;;;;19.65;7.50;;;;;;;2.09;37.41;98785.00;4959400;28;20047;-73
2022/03/03 06:14:38;;;;;;;24.50;7.88;;;;;;;2.02;37.55;98776.25;4970343;28;20039;-72
2022/03/03 06:17:05;;;;;;;26.55;9.15;;;;;;;2.10;37.60;98778.56;4972666;28;20054;-74
2022/03/03 06:19:39;;;;;;;31.17;8.03;;;;;;;2.20;37.28;98775.22;4976159;28;20057;-73
2022/03/03 06:22:07;;;;;;;22.73;8.32;;;;;;;2.32;37.23;98779.72;4957074;28;20080;-73
2022/03/03 06:24:32;;;;;;;23.48;8.35;;;;;;;2.29;37.27;98772.13;4965854;28;20570;-73
2022/03/03 06:26:59;;;;;;;26.00;7.72;;;;;;;2.44;37.32;98766.97;4956631;28;20047;-74
2022/03/03 06:29:25;;;;;;;23.63;8.35;;;;;;;2.48;37.12;98764.56;4940516;28;20051;-73
2022/03/03 06:31:51;;;;;;;39.65;9.95;;;;;;;2.44;37.46;98758.03;4972219;28;20057;-72
2022/03/03 06:34:20;;;;;;;29.30;7.95;;;;;;;2.54;37.33;98755.50;4972991;28;20050;-74
2022/03/03 06:36:46;;;;;;;24.80;7.93;;;;;;;2.65;37.10;98761.84;4965749;28;20047;-74
2022/03/03 06:39:13;;;;;;;24.45;7.60;;;;;;;2.73;36.95;98758.72;4973442;28;20504;-74
2022/03/03 06:41:40;;;;;;;26.60;9.33;;;;;;;2.77;36.82;98749.09;4973653;28;20059;-72
2022/03/03 06:44:07;;;;;;;23.88;7.60;;;;;;;2.82;36.84;98753.75;4972810;28;20726;-74
2022/03/03 06:46:33;;;;;;;;;;;;;;;2.79;36.85;98741.53;4972465;28;20043;-73
2022/03/03 06:49:00;;;;;;;33.80;7.55;;;;;;;2.80;36.93;98745.88;4975396;28;19937;-74
2022/03/03 06:51:33;;;;;;;21.33;7.72;;;;;;;2.69;37.15;98747.63;4972697;28;20054;-74
2022/03/03 06:54:02;;;;;;;26.17;8.10;;;;;;;2.80;37.16;98747.75;4976237;28;20051;-73
2022/03/03 06:56:30;;;;;;;26.23;8.32;;;;;;;2.90;37.36;98747.91;4972582;28;20142;-74
2022/03/03 06:58:59;;;;;;;25.92;8.48;;;;;;;2.96;37.39;98746.88;4954820;28;20408;-73
2022/03/03 07:01:28;;;;;;;18.17;7.85;;;;;;;3.01;37.45;98748.03;4969378;28;20057;-74
2022/03/03 07:03:55;;;;;;;24.45;9.07;;;;;;;2.94;37.44;98727.41;4970762;28;20131;-73
2022/03/03 07:06:24;;;;;;;28.05;9.13;;;;;;;3.08;37.56;98738.69;4971535;28;20054;-74
2022/03/03 07:08:54;;;;;;;28.50;8.35;;;;;;;3.17;37.35;98728.25;4971761;28;20062;-74
2022/03/03 07:11:23;;;;;;;32.60;9.05;;;;;;;3.40;37.24;98721.75;4953933;28;20051;-74
2022/03/03 07:13:50;;;;;;;32.97;9.60;;;;;;;3.42;37.13;98717.97;4973368;28;20038;-73
2022/03/03 07:16:36;;;;;;;31.07;9.27;;;;;;;3.65;36.92;98727.66;4971780;28;20047;-74
2022/03/03 07:19:04;;;;;;;29.27;9.27;;;;;;;3.86;36.63;98735.97;4971239;28;20074;-74
2022/03/03 07:21:50;;;;;;;25.45;9.32;;;;;;;4.02;36.57;98726.13;4974645;28;20046;-74
2022/03/03 07:24:26;;;;;;;34.17;9.85;;;;;;;4.18;36.46;98721.63;4971571;28;20133;-74
2022/03/03 07:26:57;;;;;;;31.23;9.75;;;;;;;4.35;36.16;98729.59;4969723;28;20047;-74
2022/03/03 07:29:28;;;;;;;36.08;9.07;;;;;;;4.38;36.12;98735.31;4970849;28;20098;-75
2022/03/03 07:31:56;;;;;;;26.60;9.30;;;;;;;4.35;36.00;98729.59;4974594;28;20104;-74
2022/03/03 07:34:26;;;;;;;20.83;8.48;;;;;;;4.34;36.13;98717.97;4970746;28;20050;-74
2022/03/03 07:36:56;;;;;;;30.10;8.55;;;;;;;4.26;36.05;98700.31;4953454;28;20412;-74
2022/03/03 07:39:31;;;;;;;35.00;9.70;;;;;;;4.42;36.00;98716.66;4971129;28;20055;-75
2022/03/03 07:41:58;;;;;;;42.38;10.05;;;;;;;4.57;36.01;98728.66;4967847;28;20050;-74
2022/03/03 07:44:28;;;;;;;25.88;9.75;;;;;;;4.69;35.74;98721.16;4969693;28;20043;-74
2022/03/03 07:46:56;;;;;;;25.73;9.20;;;;;;;4.80;35.71;98722.84;4953462;28;20055;-74
2022/03/03 07:49:23;;;;;;;31.02;9.27;;;;;;;4.89;35.57;98722.34;4968812;28;20051;-73
2022/03/03 07:51:49;;;;;;;26.92;9.38;;;;;;;5.04;35.51;98725.09;4976570;28;20333;-74
2022/03/03 07:54:16;;;;;;;42.95;9.52;;;;;;;5.24;35.47;98718.97;4971454;28;20059;-73
2022/03/03 07:56:51;;;;;;;32.15;10.10;;;;;;;5.41;35.03;98715.22;4968938;28;20073;-74
2022/03/03 07:59:18;;;;;;;33.35;10.25;;;;;;;5.62;34.78;98716.06;4971804;28;20050;-73
2022/03/03 08:01:47;;;;;;;38.30;10.50;;;;;;;5.72;34.74;98715.28;4978201;28;20050;-74
2022/03/03 08:04:15;;;;;;;23.33;9.63;;;;;;;5.68;34.68;98711.47;4971135;28;20137;-77
2022/03/03 08:06:45;;;;;;;33.72;9.50;;;;;;;5.59;34.89;98713.09;4969610;28;20157;-77
2022/03/03 08:09:13;;;;;;;23.42;8.45;;;;;;;5.60;34.67;98709.28;4952877;28;20055;-77
2022/03/03 08:11:43;;;;;;;29.77;8.48;;;;;;;5.65;34.62;98698.47;4968967;28;20047;-76
2022/03/03 08:14:11;;;;;;;24.63;7.70;;;;;;;5.79;34.42;98702.28;4952122;28;20067;-77
2022/03/03 08:16:38;;;;;;;19.23;8.63;;;;;;;5.78;34.27;98688.97;4969048;28;20042;-75
2022/03/03 08:19:07;;;;;;;26.70;10.35;;;;;;;5.92;34.35;98689.25;4969151;28;20502;-75
2022/03/03 08:21:35;;;;;;;28.23;9.23;;;;;;;6.00;34.08;98693.31;4969327;28;20125;-75
2022/03/03 08:24:03;;;;;;;39.13;10.57;;;;;;;6.08;34.25;98695.53;4969052;28;20524;-75
2022/03/03 08:26:29;;;;;;;29.08;10.68;;;;;;;6.17;34.17;98691.19;4962239;28;20422;-74
2022/03/03 08:28:55;;;;;;;32.22;9.77;;;;;;;6.30;33.90;98686.25;4953695;28;20051;-75
2022/03/03 08:31:28;;;;;;;26.58;9.75;;;;;;;6.43;33.73;98679.47;4962460;28;20085;-75
2022/03/03 08:34:02;;;;;;;34.28;10.23;;;;;;;6.58;33.56;98681.31;4971004;28;20077;-76
2022/03/03 08:36:33;;;;;;;27.83;9.82;;;;;;;6.72;33.68;98684.28;4966510;28;20054;-77
2022/03/03 08:39:04;;;;;;;34.67;11.57;;;;;;;6.85;33.44;98685.59;4954621;28;20051;-74
2022/03/03 08:41:35;;;;;;;40.58;9.90;;;;;;;6.97;33.40;98680.66;4970722;28;20484;-75
2022/03/03 08:44:04;;;;;;;30.98;11.00;;;;;;;7.17;33.36;98689.81;4971756;28;20055;-75
2022/03/03 08:46:33;;;;;;;30.90;10.10;;;;;;;7.31;33.33;98695.44;4977216;28;20065;-77
2022/03/03 08:49:01;;;;;;;34.55;11.13;;;;;;;7.52;33.09;98690.69;4943812;28;20524;-75
2022/03/03 08:51:28;;;;;;;21.27;9.63;;;;;;;7.71;32.56;98693.56;4966715;28;20463;-76
2022/03/03 08:53:55;;;;;;;39.30;8.73;;;;;;;7.76;32.43;98690.00;4970737;28;20058;-76
2022/03/03 08:56:25;;;;;;;30.80;9.63;;;;;;;7.83;32.43;98690.50;4970131;28;20061;-76
2022/03/03 08:58:52;;;;;;;22.30;9.77;;;;;;;7.84;32.42;98691.31;4952264;28;20050;-75
2022/03/03 09:01:19;;;;;;;27.05;9.05;;;;;;;7.85;32.22;98680.13;4964259;28;20133;-74
2022/03/03 09:03:46;;;;;;;30.73;9.45;;;;;;;8.13;31.85;98690.53;4954054;28;20042;-75
2022/03/03 09:06:14;;;;;;;28.10;8.98;;;;;;;8.21;31.84;98689.91;4971470;28;20047;-75
2022/03/03 09:08:40;;;;;;;34.53;9.18;;;;;;;8.36;31.79;98684.31;4952331;28;20047;-75
2022/03/03 09:11:07;;;;;;;22.08;8.02;;;;;;;8.45;31.62;98681.78;4947407;28;20059;-75
2022/03/03 09:13:33;;;;;;;27.48;8.85;;;;;;;8.58;31.32;98679.50;4951584;28;20043;-76
2022/03/03 09:15:59;;;;;;;23.90;9.18;;;;;;;8.73;31.22;98687.53;4969506;28;20113;-75
2022/03/03 09:18:26;;;;;;;29.52;9.10;;;;;;;8.74;31.27;98682.88;4971693;28;20050;-75
2022/03/03 09:20:52;;;;;;;18.88;7.97;;;;;;;8.99;30.61;98678.22;4970119;28;20047;-76
2022/03/03 09:23:18;;;;;;;25.38;8.60;;;;;;;9.22;30.27;98679.28;4969687;28;20049;-75
2022/03/03 09:25:44;;;;;;;23.35;8.48;;;;;;;9.34;30.38;98670.69;4967715;28;20511;-75
2022/03/03 09:28:12;;;;;;;30.52;8.57;;;;;;;9.41;30.27;98676.59;4970251;28;20049;-75
2022/03/03 09:30:38;;;;;;;27.02;9.23;;;;;;;9.57;30.22;98676.38;4954622;28;20047;-76
2022/03/03 09:33:05;;;;;;;29.58;10.55;;;;;;;9.54;30.10;98668.78;4937238;28;20409;-75
2022/03/03 09:35:32;;;;;;;25.58;9.38;;;;;;;9.61;30.42;98661.03;4969904;28;20511;-75
2022/03/03 09:37:59;;;;;;;28.88;10.32;;;;;;;9.88;30.29;98670.44;4969464;28;20061;-76
2022/03/03 09:40:25;;;;;;;32.42;10.32;;;;;;;10.14;29.65;98659.91;4969603;28;20601;-75
2022/03/03 09:42:56;;;;;;;35.10;10.35;;;;;;;10.23;29.84;98672.88;4970885;28;20426;-75
2022/03/03 09:45:24;;;;;;;30.35;10.32;;;;;;;10.44;29.58;98657.75;4970916;28;20057;-74
2022/03/03 09:47:54;;;;;;;28.92;10.77;;;;;;;10.67;29.30;98670.75;4970786;28;20396;-74
2022/03/03 09:50:22;;;;;;;36.22;10.13;;;;;;;10.63;29.34;98663.16;4959364;28;20411;-74
2022/03/03 09:52:49;;;;;;;29.42;9.00;;;;;;;10.71;29.18;98669.84;4969534;28;20463;-74
2022/03/03 09:55:15;;;;;;;25.40;11.05;;;;;;;10.82;29.13;98664.13;4959504;28;20051;-75
2022/03/03 09:57:42;;;;;;;31.23;10.55;;;;;;;10.93;29.17;98671.03;4968654;28;20056;-75
2022/03/03 10:00:11;;;;;;;37.85;10.75;;;;;;;10.97;28.94;98666.56;4968431;28;20046;-75
2022/03/03 10:03:00;;;;;;;30.25;11.18;;;;;;;11.14;28.48;98668.69;4936048;28;20109;-76
2022/03/03 10:05:29;;;;;;;24.38;9.48;;;;;;;11.33;28.24;98662.25;4970466;28;20055;-76
2022/03/03 10:08:00;;;;;;;30.08;11.00;;;;;;;11.36;28.00;98653.44;4967905;28;20055;-74
2022/03/03 10:10:26;;;;;;;23.95;9.70;;;;;;;11.28;27.65;98651.44;4937157;28;20153;-74
2022/03/03 10:12:56;;;;;;;23.13;10.57;;;;;;;11.34;27.75;98656.50;4953932;28;20046;-74
2022/03/03 10:15:26;;;;;;;28.48;10.45;;;;;;;11.51;27.56;98644.09;4969721;28;20426;-75
2022/03/03 10:18:02;;;;;;;27.52;11.13;;;;;;;11.99;27.54;98645.38;4961522;28;20047;-75
2022/03/03 10:20:34;;;;;;;24.13;10.40;;;;;;;11.99;27.09;98623.47;4964102;28;20047;-74
2022/03/03 10:23:01;;;;;;;26.33;10.65;;;;;;;12.10;27.04;98639.69;4952862;28;20043;-75
2022/03/03 10:25:30;;;;;;;29.00;14.20;;;;;;;12.25;26.93;98641.19;4969770;28;20076;-75
2022/03/03 10:28:04;;;;;;;38.83;13.68;;;;;;;12.42;26.83;98635.84;4969486;28;20102;-74
2022/03/03 10:30:46;;;;;;;31.35;12.80;;;;;;;12.60;26.37;98638.66;4967475;28;20051;-75
2022/03/03 10:33:19;;;;;;;29.30;10.30;;;;;;;12.70;26.19;98635.59;4972737;28;20089;-74
2022/03/03 10:36:08;;;;;;;23.65;10.82;;;;;;;12.76;25.62;98636.25;4970125;28;20054;-74
2022/03/03 10:38:45;;;;;;;26.88;11.82;;;;;;;12.84;25.54;98637.41;4950477;28;20130;-73
2022/03/03 10:41:36;;;;;;;30.02;11.70;;;;;;;12.65;26.22;98632.22;4966827;28;20511;-74
2022/03/03 10:44:07;;;;;;;25.42;11.82;;;;;;;12.22;26.72;98631.69;4970961;28;20085;-74
2022/03/03 10:46:36;;;;;;;33.05;12.43;;;;;;;11.98;26.90;98643.75;4971185;28;20054;-74
2022/03/03 10:49:18;;;;;;;21.27;9.18;;;;;;;11.91;26.10;98632.44;4953187;28;20427;-74
2022/03/03 10:51:45;;;;;;;33.53;10.55;;;;;;;11.60;26.36;98627.72;4947743;28;20054;-73
2022/03/03 10:54:12;;;;;;;23.13;8.87;;;;;;;11.68;26.16;98626.16;4970553;28;20058;-74
2022/03/03 10:56:46;;;;;;;24.35;9.68;;;;;;;11.47;26.05;98627.47;4968328;28;20831;-75
2022/03/03 10:59:22;;;;;;;26.23;9.77;;;;;;;11.33;26.43;98619.31;4967850;28;20039;-78
2022/03/03 11:01:50;;;;;;;20.73;9.30;;;;;;;11.41;26.25;98620.50;4965456;28;20486;-78
2022/03/03 11:04:20;;;;;;;23.25;9.60;;;;;;;11.27;26.42;98614.25;4971461;28;20462;-76
2022/03/03 11:07:02;;;;;;;32.25;8.77;;;;;;;11.16;26.37;98621.84;4955070;28;20054;-76
2022/03/03 11:09:38;;;;;;;19.85;8.75;;;;;;;11.15;26.57;98612.03;4975749;28;20054;-76
2022/03/03 11:20:13;;;;;;;24.30;9.25;;;;;;;12.08;25.61;98609.84;4922702;29;20094;-78
2022/03/03 11:22:41;;;;;;;19.92;8.35;;;;;;;12.07;25.62;98610.97;4919567;29;20545;-78
2022/03/03 11:25:11;;;;;;;19.35;7.78;;;;;;;12.32;25.15;98601.25;4925885;29;20055;-78
2022/03/03 11:27:40;;;;;;;23.88;8.60;;;;;;;12.59;24.56;98604.13;4924247;29;20055;-77
2022/03/03 11:30:16;;;;;;;18.55;8.50;;;;;;;12.52;24.48;98588.13;4929697;29;20524;-77
2022/03/03 11:32:47;;;;;;;20.15;8.98;;;;;;;12.86;24.23;98600.31;4924756;29;20052;-78
2022/03/03 11:35:15;;;;;;;22.17;9.00;;;;;;;13.02;24.20;98592.44;4928286;29;20603;-76
2022/03/03 11:37:45;;;;;;;21.88;8.27;;;;;;;12.99;23.95;98601.31;4912935;29;20055;-77
2022/03/03 11:40:17;;;;;;;21.33;8.32;;;;;;;13.23;23.43;98600.06;4898976;29;20173;-78
2022/03/03 11:42:50;;;;;;;24.08;8.10;;;;;;;13.28;23.40;98591.66;4915310;29;20095;-77
2022/03/03 11:45:19;;;;;;;16.10;7.35;;;;;;;13.57;22.83;98595.72;4930703;29;20134;-78